sensor_id;sensor_type;location;lat;lon;timestamp;P1;durP1;ratioP1;P2;durP2;ratioP2
31526;SDS011;18136;42.236;-73.040;2023-04-15T00:00:15;8.27;;;2.55;;
31526;SDS011;18136;42.236;-73.040;2023-04-15T00:02:41;6.10;;;2.45;;
31526;SDS011;18136;42.236;-73.040;2023-04-15T00:05:09;7.65;;;2.63;;
31526;SDS011;18136;42.236;-73.040;2023-04-15T00:07:36;3.67;;;2.40;;
31526;SDS011;18136;42.236;-73.040;2023-04-15T00:10:02;8.35;;;2.42;;
31526;SDS011;18136;42.236;-73.040;2023-04-15T00:12:29;25.70;;;2.92;;
31526;SDS011;18136;42.236;-73.040;2023-04-15T00:14:55;6.05;;;2.30;;
31526;SDS011;18136;42.236;-73.040;2023-04-15T00:17:23;6.10;;;2.30;;
31526;SDS011;18136;42.236;-73.040;2023-04-15T00:19:49;5.35;;;2.78;;
31526;SDS011;18136;42.236;-73.040;2023-04-15T00:22:15;4.18;;;2.35;;
31526;SDS011;18136;42.236;-73.040;2023-04-15T00:24:42;4.95;;;2.35;;
31526;SDS011;18136;42.236;-73.040;2023-04-15T00:27:08;6.97;;;2.22;;
31526;SDS011;18136;42.236;-73.040;2023-04-15T00:29:34;8.15;;;2.50;;
31526;SDS011;18136;42.236;-73.040;2023-04-15T00:32:00;3.90;;;2.20;;
31526;SDS011;18136;42.236;-73.040;2023-04-15T00:34:26;6.50;;;2.63;;
31526;SDS011;18136;42.236;-73.040;2023-04-15T00:36:53;5.97;;;2.88;;
31526;SDS011;18136;42.236;-73.040;2023-04-15T00:39:19;3.25;;;2.45;;
31526;SDS011;18136;42.236;-73.040;2023-04-15T00:41:46;5.65;;;2.83;;
31526;SDS011;18136;42.236;-73.040;2023-04-15T00:44:13;5.30;;;2.70;;
31526;SDS011;18136;42.236;-73.040;2023-04-15T00:46:40;7.65;;;2.85;;
31526;SDS011;18136;42.236;-73.040;2023-04-15T00:49:09;5.22;;;2.28;;
31526;SDS011;18136;42.236;-73.040;2023-04-15T00:51:35;6.03;;;2.70;;
31526;SDS011;18136;42.236;-73.040;2023-04-15T00:54:02;7.82;;;2.40;;
31526;SDS011;18136;42.236;-73.040;2023-04-15T00:56:29;8.95;;;2.50;;
31526;SDS011;18136;42.236;-73.040;2023-04-15T00:58:56;8.80;;;2.60;;
31526;SDS011;18136;42.236;-73.040;2023-04-15T01:01:24;6.90;;;2.17;;
31526;SDS011;18136;42.236;-73.040;2023-04-15T01:03:51;5.57;;;2.47;;
31526;SDS011;18136;42.236;-73.040;2023-04-15T01:06:18;10.05;;;3.20;;
31526;SDS011;18136;42.236;-73.040;2023-04-15T01:08:45;10.93;;;2.80;;
31526;SDS011;18136;42.236;-73.040;2023-04-15T01:11:11;7.68;;;3.20;;
31526;SDS011;18136;42.236;-73.040;2023-04-15T01:13:38;11.43;;;2.60;;
31526;SDS011;18136;42.236;-73.040;2023-04-15T01:16:05;9.00;;;3.80;;
31526;SDS011;18136;42.236;-73.040;2023-04-15T01:18:33;5.40;;;3.03;;
31526;SDS011;18136;42.236;-73.040;2023-04-15T01:21:01;9.68;;;3.10;;
31526;SDS011;18136;42.236;-73.040;2023-04-15T01:23:29;6.05;;;3.00;;
31526;SDS011;18136;42.236;-73.040;2023-04-15T01:25:55;8.77;;;2.78;;
31526;SDS011;18136;42.236;-73.040;2023-04-15T01:28:22;5.53;;;3.10;;
31526;SDS011;18136;42.236;-73.040;2023-04-15T01:30:49;6.65;;;2.90;;
31526;SDS011;18136;42.236;-73.040;2023-04-15T01:33:29;6.25;;;3.03;;
31526;SDS011;18136;42.236;-73.040;2023-04-15T01:35:57;7.75;;;2.75;;
31526;SDS011;18136;42.236;-73.040;2023-04-15T01:38:24;6.65;;;3.20;;
31526;SDS011;18136;42.236;-73.040;2023-04-15T01:40:51;9.70;;;3.42;;
31526;SDS011;18136;42.236;-73.040;2023-04-15T01:43:17;7.70;;;2.85;;
31526;SDS011;18136;42.236;-73.040;2023-04-15T01:45:43;4.97;;;2.88;;
31526;SDS011;18136;42.236;-73.040;2023-04-15T01:48:09;6.03;;;2.72;;
31526;SDS011;18136;42.236;-73.040;2023-04-15T01:50:36;8.68;;;3.28;;
31526;SDS011;18136;42.236;-73.040;2023-04-15T01:53:03;9.40;;;3.17;;
31526;SDS011;18136;42.236;-73.040;2023-04-15T01:55:29;8.93;;;3.50;;
31526;SDS011;18136;42.236;-73.040;2023-04-15T01:57:55;7.90;;;2.75;;
31526;SDS011;18136;42.236;-73.040;2023-04-15T02:00:21;6.47;;;2.83;;
31526;SDS011;18136;42.236;-73.040;2023-04-15T02:02:48;6.70;;;3.13;;
31526;SDS011;18136;42.236;-73.040;2023-04-15T02:05:14;10.85;;;3.78;;
31526;SDS011;18136;42.236;-73.040;2023-04-15T02:07:43;7.88;;;2.55;;
31526;SDS011;18136;42.236;-73.040;2023-04-15T02:10:09;11.60;;;3.22;;
31526;SDS011;18136;42.236;-73.040;2023-04-15T02:12:37;4.28;;;2.70;;
31526;SDS011;18136;42.236;-73.040;2023-04-15T02:15:04;6.32;;;3.40;;
31526;SDS011;18136;42.236;-73.040;2023-04-15T02:17:34;5.28;;;3.20;;
31526;SDS011;18136;42.236;-73.040;2023-04-15T02:20:01;9.25;;;3.80;;
31526;SDS011;18136;42.236;-73.040;2023-04-15T02:22:30;6.80;;;3.47;;
31526;SDS011;18136;42.236;-73.040;2023-04-15T02:24:56;7.05;;;2.78;;
31526;SDS011;18136;42.236;-73.040;2023-04-15T02:27:22;6.00;;;3.40;;
31526;SDS011;18136;42.236;-73.040;2023-04-15T02:29:48;7.93;;;3.78;;
31526;SDS011;18136;42.236;-73.040;2023-04-15T02:32:17;9.60;;;3.40;;
31526;SDS011;18136;42.236;-73.040;2023-04-15T02:34:44;4.57;;;3.60;;
31526;SDS011;18136;42.236;-73.040;2023-04-15T02:37:11;8.70;;;3.58;;
31526;SDS011;18136;42.236;-73.040;2023-04-15T02:39:37;8.82;;;3.53;;
31526;SDS011;18136;42.236;-73.040;2023-04-15T02:42:03;5.80;;;3.88;;
31526;SDS011;18136;42.236;-73.040;2023-04-15T02:44:32;4.50;;;3.47;;
31526;SDS011;18136;42.236;-73.040;2023-04-15T02:47:00;7.32;;;3.38;;
31526;SDS011;18136;42.236;-73.040;2023-04-15T02:49:27;10.95;;;3.42;;
31526;SDS011;18136;42.236;-73.040;2023-04-15T02:51:55;13.05;;;3.80;;
31526;SDS011;18136;42.236;-73.040;2023-04-15T02:54:22;7.90;;;3.47;;
31526;SDS011;18136;42.236;-73.040;2023-04-15T02:56:48;6.72;;;3.63;;
31526;SDS011;18136;42.236;-73.040;2023-04-15T02:59:15;5.90;;;3.95;;
31526;SDS011;18136;42.236;-73.040;2023-04-15T03:01:41;9.30;;;3.80;;
31526;SDS011;18136;42.236;-73.040;2023-04-15T03:04:07;5.95;;;3.90;;
31526;SDS011;18136;42.236;-73.040;2023-04-15T03:06:33;5.55;;;3.97;;
31526;SDS011;18136;42.236;-73.040;2023-04-15T03:09:01;8.55;;;3.95;;
31526;SDS011;18136;42.236;-73.040;2023-04-15T03:11:28;8.20;;;3.83;;
31526;SDS011;18136;42.236;-73.040;2023-04-15T03:13:54;11.65;;;3.80;;
31526;SDS011;18136;42.236;-73.040;2023-04-15T03:16:20;5.75;;;3.75;;
31526;SDS011;18136;42.236;-73.040;2023-04-15T03:18:46;9.40;;;3.60;;
31526;SDS011;18136;42.236;-73.040;2023-04-15T03:21:12;10.07;;;3.92;;
31526;SDS011;18136;42.236;-73.040;2023-04-15T03:23:38;7.85;;;3.72;;
31526;SDS011;18136;42.236;-73.040;2023-04-15T03:26:04;7.50;;;3.78;;
31526;SDS011;18136;42.236;-73.040;2023-04-15T03:28:30;9.27;;;4.05;;
31526;SDS011;18136;42.236;-73.040;2023-04-15T03:30:57;9.05;;;3.75;;
31526;SDS011;18136;42.236;-73.040;2023-04-15T03:33:24;6.07;;;3.92;;
31526;SDS011;18136;42.236;-73.040;2023-04-15T03:35:50;6.97;;;3.30;;
31526;SDS011;18136;42.236;-73.040;2023-04-15T03:38:17;6.03;;;3.40;;
31526;SDS011;18136;42.236;-73.040;2023-04-15T03:40:45;5.97;;;3.80;;
31526;SDS011;18136;42.236;-73.040;2023-04-15T03:43:11;8.45;;;4.30;;
31526;SDS011;18136;42.236;-73.040;2023-04-15T03:45:37;6.95;;;3.83;;
31526;SDS011;18136;42.236;-73.040;2023-04-15T03:48:03;6.53;;;3.45;;
31526;SDS011;18136;42.236;-73.040;2023-04-15T03:50:30;7.43;;;4.07;;
31526;SDS011;18136;42.236;-73.040;2023-04-15T03:52:56;6.30;;;3.80;;
31526;SDS011;18136;42.236;-73.040;2023-04-15T03:55:22;10.93;;;3.88;;
31526;SDS011;18136;42.236;-73.040;2023-04-15T03:57:48;9.25;;;4.00;;
31526;SDS011;18136;42.236;-73.040;2023-04-15T04:00:15;8.13;;;4.20;;
31526;SDS011;18136;42.236;-73.040;2023-04-15T04:02:41;5.60;;;3.70;;
31526;SDS011;18136;42.236;-73.040;2023-04-15T04:05:07;5.13;;;3.72;;
31526;SDS011;18136;42.236;-73.040;2023-04-15T04:07:33;8.35;;;3.50;;
31526;SDS011;18136;42.236;-73.040;2023-04-15T04:09:59;7.28;;;3.40;;
31526;SDS011;18136;42.236;-73.040;2023-04-15T04:12:25;6.20;;;3.83;;
31526;SDS011;18136;42.236;-73.040;2023-04-15T04:14:51;4.70;;;3.30;;
31526;SDS011;18136;42.236;-73.040;2023-04-15T04:17:17;6.65;;;3.53;;
31526;SDS011;18136;42.236;-73.040;2023-04-15T04:19:43;6.07;;;4.05;;
31526;SDS011;18136;42.236;-73.040;2023-04-15T04:22:09;5.53;;;3.67;;
31526;SDS011;18136;42.236;-73.040;2023-04-15T04:24:36;9.57;;;3.72;;
31526;SDS011;18136;42.236;-73.040;2023-04-15T04:27:02;8.20;;;3.58;;
31526;SDS011;18136;42.236;-73.040;2023-04-15T04:29:28;5.50;;;3.42;;
31526;SDS011;18136;42.236;-73.040;2023-04-15T04:31:54;7.50;;;3.65;;
31526;SDS011;18136;42.236;-73.040;2023-04-15T04:34:20;7.18;;;3.70;;
31526;SDS011;18136;42.236;-73.040;2023-04-15T04:36:46;8.13;;;4.18;;
31526;SDS011;18136;42.236;-73.040;2023-04-15T04:39:12;5.95;;;3.80;;
31526;SDS011;18136;42.236;-73.040;2023-04-15T04:41:38;8.40;;;3.78;;
31526;SDS011;18136;42.236;-73.040;2023-04-15T04:44:05;7.20;;;4.03;;
31526;SDS011;18136;42.236;-73.040;2023-04-15T04:46:31;6.90;;;3.50;;
31526;SDS011;18136;42.236;-73.040;2023-04-15T04:48:57;9.68;;;3.83;;
31526;SDS011;18136;42.236;-73.040;2023-04-15T04:51:23;6.28;;;3.75;;
31526;SDS011;18136;42.236;-73.040;2023-04-15T04:53:50;4.88;;;3.60;;
31526;SDS011;18136;42.236;-73.040;2023-04-15T04:56:16;5.32;;;3.63;;
31526;SDS011;18136;42.236;-73.040;2023-04-15T04:58:42;7.25;;;3.97;;
31526;SDS011;18136;42.236;-73.040;2023-04-15T05:01:08;6.35;;;3.60;;
31526;SDS011;18136;42.236;-73.040;2023-04-15T05:03:34;9.50;;;3.92;;
31526;SDS011;18136;42.236;-73.040;2023-04-15T05:06:00;6.78;;;3.53;;
31526;SDS011;18136;42.236;-73.040;2023-04-15T05:08:30;5.85;;;4.00;;
31526;SDS011;18136;42.236;-73.040;2023-04-15T05:10:56;9.82;;;4.32;;
31526;SDS011;18136;42.236;-73.040;2023-04-15T05:13:22;7.82;;;3.50;;
31526;SDS011;18136;42.236;-73.040;2023-04-15T05:15:48;7.70;;;3.80;;
31526;SDS011;18136;42.236;-73.040;2023-04-15T05:18:14;6.10;;;4.38;;
31526;SDS011;18136;42.236;-73.040;2023-04-15T05:20:40;7.80;;;3.53;;
31526;SDS011;18136;42.236;-73.040;2023-04-15T05:23:06;8.93;;;4.20;;
31526;SDS011;18136;42.236;-73.040;2023-04-15T05:25:32;4.85;;;4.35;;
31526;SDS011;18136;42.236;-73.040;2023-04-15T05:27:58;10.07;;;4.05;;
31526;SDS011;18136;42.236;-73.040;2023-04-15T05:30:25;7.88;;;4.03;;
31526;SDS011;18136;42.236;-73.040;2023-04-15T05:32:51;5.72;;;4.20;;
31526;SDS011;18136;42.236;-73.040;2023-04-15T05:35:17;10.95;;;4.20;;
31526;SDS011;18136;42.236;-73.040;2023-04-15T05:37:43;11.05;;;4.32;;
31526;SDS011;18136;42.236;-73.040;2023-04-15T05:40:10;8.00;;;4.05;;
31526;SDS011;18136;42.236;-73.040;2023-04-15T05:42:36;5.80;;;4.05;;
31526;SDS011;18136;42.236;-73.040;2023-04-15T05:45:02;9.07;;;3.85;;
31526;SDS011;18136;42.236;-73.040;2023-04-15T05:47:33;5.03;;;4.30;;
31526;SDS011;18136;42.236;-73.040;2023-04-15T05:50:00;10.82;;;4.03;;
31526;SDS011;18136;42.236;-73.040;2023-04-15T05:52:26;9.27;;;3.78;;
31526;SDS011;18136;42.236;-73.040;2023-04-15T05:54:52;7.25;;;4.00;;
31526;SDS011;18136;42.236;-73.040;2023-04-15T05:57:18;12.30;;;4.32;;
31526;SDS011;18136;42.236;-73.040;2023-04-15T05:59:44;6.28;;;4.78;;
31526;SDS011;18136;42.236;-73.040;2023-04-15T06:02:11;9.50;;;3.92;;
31526;SDS011;18136;42.236;-73.040;2023-04-15T06:04:37;8.70;;;4.18;;
31526;SDS011;18136;42.236;-73.040;2023-04-15T06:07:03;9.25;;;4.43;;
31526;SDS011;18136;42.236;-73.040;2023-04-15T06:09:31;4.75;;;3.78;;
31526;SDS011;18136;42.236;-73.040;2023-04-15T06:11:58;9.82;;;4.05;;
31526;SDS011;18136;42.236;-73.040;2023-04-15T06:14:24;7.40;;;4.40;;
31526;SDS011;18136;42.236;-73.040;2023-04-15T06:16:50;8.23;;;3.88;;
31526;SDS011;18136;42.236;-73.040;2023-04-15T06:19:16;10.85;;;4.22;;
31526;SDS011;18136;42.236;-73.040;2023-04-15T06:21:42;6.05;;;4.03;;
31526;SDS011;18136;42.236;-73.040;2023-04-15T06:24:09;10.27;;;4.43;;
31526;SDS011;18136;42.236;-73.040;2023-04-15T06:26:36;9.75;;;4.20;;
31526;SDS011;18136;42.236;-73.040;2023-04-15T06:29:02;8.52;;;4.07;;
31526;SDS011;18136;42.236;-73.040;2023-04-15T06:31:28;7.80;;;4.22;;
31526;SDS011;18136;42.236;-73.040;2023-04-15T06:33:55;11.02;;;4.25;;
31526;SDS011;18136;42.236;-73.040;2023-04-15T06:36:21;6.38;;;3.90;;
31526;SDS011;18136;42.236;-73.040;2023-04-15T06:38:47;11.13;;;4.88;;
31526;SDS011;18136;42.236;-73.040;2023-04-15T06:41:13;8.38;;;4.53;;
31526;SDS011;18136;42.236;-73.040;2023-04-15T06:43:39;6.20;;;3.90;;
31526;SDS011;18136;42.236;-73.040;2023-04-15T06:46:05;9.70;;;4.15;;
31526;SDS011;18136;42.236;-73.040;2023-04-15T06:48:31;7.63;;;4.00;;
31526;SDS011;18136;42.236;-73.040;2023-04-15T06:50:58;9.13;;;3.85;;
31526;SDS011;18136;42.236;-73.040;2023-04-15T06:53:24;5.70;;;4.00;;
31526;SDS011;18136;42.236;-73.040;2023-04-15T06:55:52;8.18;;;4.28;;
31526;SDS011;18136;42.236;-73.040;2023-04-15T06:58:18;8.00;;;4.60;;
31526;SDS011;18136;42.236;-73.040;2023-04-15T07:00:44;8.45;;;4.22;;
31526;SDS011;18136;42.236;-73.040;2023-04-15T07:03:11;6.43;;;4.50;;
31526;SDS011;18136;42.236;-73.040;2023-04-15T07:05:38;11.45;;;4.80;;
31526;SDS011;18136;42.236;-73.040;2023-04-15T07:08:04;5.88;;;4.03;;
31526;SDS011;18136;42.236;-73.040;2023-04-15T07:10:31;9.80;;;4.93;;
31526;SDS011;18136;42.236;-73.040;2023-04-15T07:13:01;11.07;;;4.15;;
31526;SDS011;18136;42.236;-73.040;2023-04-15T07:15:33;5.35;;;4.10;;
31526;SDS011;18136;42.236;-73.040;2023-04-15T07:17:59;6.60;;;3.95;;
31526;SDS011;18136;42.236;-73.040;2023-04-15T07:20:25;12.80;;;4.93;;
31526;SDS011;18136;42.236;-73.040;2023-04-15T07:22:51;6.72;;;4.13;;
31526;SDS011;18136;42.236;-73.040;2023-04-15T07:25:17;7.63;;;3.95;;
31526;SDS011;18136;42.236;-73.040;2023-04-15T07:27:44;8.27;;;4.20;;
31526;SDS011;18136;42.236;-73.040;2023-04-15T07:30:10;6.05;;;4.20;;
31526;SDS011;18136;42.236;-73.040;2023-04-15T07:32:36;7.43;;;4.40;;
31526;SDS011;18136;42.236;-73.040;2023-04-15T07:35:03;8.88;;;4.70;;
31526;SDS011;18136;42.236;-73.040;2023-04-15T07:37:29;10.20;;;4.65;;
31526;SDS011;18136;42.236;-73.040;2023-04-15T07:39:55;7.20;;;4.45;;
31526;SDS011;18136;42.236;-73.040;2023-04-15T07:42:21;11.35;;;4.43;;
31526;SDS011;18136;42.236;-73.040;2023-04-15T07:44:47;10.75;;;5.20;;
31526;SDS011;18136;42.236;-73.040;2023-04-15T07:47:13;10.75;;;4.38;;
31526;SDS011;18136;42.236;-73.040;2023-04-15T07:49:40;7.38;;;4.72;;
31526;SDS011;18136;42.236;-73.040;2023-04-15T07:52:07;7.38;;;4.57;;
31526;SDS011;18136;42.236;-73.040;2023-04-15T07:54:33;6.72;;;4.40;;
31526;SDS011;18136;42.236;-73.040;2023-04-15T07:56:59;6.28;;;4.55;;
31526;SDS011;18136;42.236;-73.040;2023-04-15T07:59:25;12.90;;;5.45;;
31526;SDS011;18136;42.236;-73.040;2023-04-15T08:01:54;7.43;;;4.15;;
31526;SDS011;18136;42.236;-73.040;2023-04-15T08:04:20;9.98;;;4.70;;
31526;SDS011;18136;42.236;-73.040;2023-04-15T08:06:46;12.50;;;4.50;;
31526;SDS011;18136;42.236;-73.040;2023-04-15T08:09:14;9.90;;;4.72;;
31526;SDS011;18136;42.236;-73.040;2023-04-15T08:11:41;6.70;;;3.83;;
31526;SDS011;18136;42.236;-73.040;2023-04-15T08:14:07;6.45;;;4.22;;
31526;SDS011;18136;42.236;-73.040;2023-04-15T08:16:33;8.32;;;4.55;;
31526;SDS011;18136;42.236;-73.040;2023-04-15T08:19:00;8.88;;;4.50;;
31526;SDS011;18136;42.236;-73.040;2023-04-15T08:21:26;7.30;;;4.32;;
31526;SDS011;18136;42.236;-73.040;2023-04-15T08:23:52;6.57;;;4.13;;
31526;SDS011;18136;42.236;-73.040;2023-04-15T08:26:19;9.73;;;4.47;;
31526;SDS011;18136;42.236;-73.040;2023-04-15T08:28:46;5.60;;;4.18;;
31526;SDS011;18136;42.236;-73.040;2023-04-15T08:31:13;9.30;;;4.28;;
31526;SDS011;18136;42.236;-73.040;2023-04-15T08:33:40;12.93;;;4.90;;
31526;SDS011;18136;42.236;-73.040;2023-04-15T08:36:06;10.43;;;4.80;;
31526;SDS011;18136;42.236;-73.040;2023-04-15T08:38:33;6.38;;;3.92;;
31526;SDS011;18136;42.236;-73.040;2023-04-15T08:41:02;10.35;;;4.30;;
31526;SDS011;18136;42.236;-73.040;2023-04-15T08:43:34;10.77;;;4.30;;
31526;SDS011;18136;42.236;-73.040;2023-04-15T08:46:04;10.32;;;4.78;;
31526;SDS011;18136;42.236;-73.040;2023-04-15T08:48:32;7.57;;;4.75;;
31526;SDS011;18136;42.236;-73.040;2023-04-15T08:50:59;7.57;;;4.07;;
31526;SDS011;18136;42.236;-73.040;2023-04-15T08:53:27;11.05;;;3.95;;
31526;SDS011;18136;42.236;-73.040;2023-04-15T08:55:55;7.15;;;4.40;;
31526;SDS011;18136;42.236;-73.040;2023-04-15T08:58:22;8.07;;;4.20;;
31526;SDS011;18136;42.236;-73.040;2023-04-15T09:00:49;6.40;;;4.25;;
31526;SDS011;18136;42.236;-73.040;2023-04-15T09:03:15;7.32;;;4.65;;
31526;SDS011;18136;42.236;-73.040;2023-04-15T09:05:42;5.68;;;4.60;;
31526;SDS011;18136;42.236;-73.040;2023-04-15T09:08:08;13.07;;;5.20;;
31526;SDS011;18136;42.236;-73.040;2023-04-15T09:10:34;10.88;;;4.45;;
31526;SDS011;18136;42.236;-73.040;2023-04-15T09:13:00;5.03;;;4.15;;
31526;SDS011;18136;42.236;-73.040;2023-04-15T09:15:27;7.72;;;4.40;;
31526;SDS011;18136;42.236;-73.040;2023-04-15T09:17:54;6.70;;;4.28;;
31526;SDS011;18136;42.236;-73.040;2023-04-15T09:20:21;7.45;;;4.60;;
31526;SDS011;18136;42.236;-73.040;2023-04-15T09:22:48;9.50;;;4.85;;
31526;SDS011;18136;42.236;-73.040;2023-04-15T09:27:47;8.98;;;5.05;;
31526;SDS011;18136;42.236;-73.040;2023-04-15T09:30:14;5.45;;;4.13;;
31526;SDS011;18136;42.236;-73.040;2023-04-15T09:35:19;8.15;;;4.40;;
31526;SDS011;18136;42.236;-73.040;2023-04-15T09:37:46;9.95;;;4.22;;
31526;SDS011;18136;42.236;-73.040;2023-04-15T09:40:34;8.75;;;4.10;;
31526;SDS011;18136;42.236;-73.040;2023-04-15T09:43:04;7.32;;;4.10;;
31526;SDS011;18136;42.236;-73.040;2023-04-15T09:45:31;7.28;;;4.50;;
31526;SDS011;18136;42.236;-73.040;2023-04-15T09:47:58;5.93;;;4.20;;
31526;SDS011;18136;42.236;-73.040;2023-04-15T09:50:46;6.78;;;4.65;;
31526;SDS011;18136;42.236;-73.040;2023-04-15T09:53:19;8.45;;;4.38;;
31526;SDS011;18136;42.236;-73.040;2023-04-15T10:00:51;6.82;;;4.05;;
31526;SDS011;18136;42.236;-73.040;2023-04-15T10:05:46;7.28;;;4.82;;
31526;SDS011;18136;42.236;-73.040;2023-04-15T10:08:15;8.60;;;4.88;;
31526;SDS011;18136;42.236;-73.040;2023-04-15T10:10:43;9.30;;;4.78;;
31526;SDS011;18136;42.236;-73.040;2023-04-15T10:13:12;10.65;;;4.70;;
31526;SDS011;18136;42.236;-73.040;2023-04-15T10:15:43;8.18;;;4.32;;
31526;SDS011;18136;42.236;-73.040;2023-04-15T10:18:15;10.43;;;4.30;;
31526;SDS011;18136;42.236;-73.040;2023-04-15T10:20:46;10.75;;;4.50;;
31526;SDS011;18136;42.236;-73.040;2023-04-15T10:23:12;8.63;;;4.55;;
31526;SDS011;18136;42.236;-73.040;2023-04-15T10:25:41;7.45;;;4.07;;
31526;SDS011;18136;42.236;-73.040;2023-04-15T10:28:07;8.50;;;4.30;;
31526;SDS011;18136;42.236;-73.040;2023-04-15T10:30:34;7.25;;;4.07;;
31526;SDS011;18136;42.236;-73.040;2023-04-15T10:33:01;5.80;;;4.20;;
31526;SDS011;18136;42.236;-73.040;2023-04-15T10:35:31;4.93;;;3.92;;
31526;SDS011;18136;42.236;-73.040;2023-04-15T10:37:58;8.43;;;4.53;;
31526;SDS011;18136;42.236;-73.040;2023-04-15T10:40:25;8.07;;;4.10;;
31526;SDS011;18136;42.236;-73.040;2023-04-15T10:42:53;9.43;;;4.93;;
31526;SDS011;18136;42.236;-73.040;2023-04-15T10:45:20;10.95;;;4.30;;
31526;SDS011;18136;42.236;-73.040;2023-04-15T10:48:00;8.15;;;4.28;;
31526;SDS011;18136;42.236;-73.040;2023-04-15T10:50:27;10.80;;;4.65;;
31526;SDS011;18136;42.236;-73.040;2023-04-15T10:52:56;6.88;;;4.00;;
31526;SDS011;18136;42.236;-73.040;2023-04-15T10:55:23;5.78;;;4.40;;
31526;SDS011;18136;42.236;-73.040;2023-04-15T10:57:52;6.57;;;3.95;;
31526;SDS011;18136;42.236;-73.040;2023-04-15T11:00:23;9.68;;;4.05;;
31526;SDS011;18136;42.236;-73.040;2023-04-15T11:02:52;6.82;;;4.10;;
31526;SDS011;18136;42.236;-73.040;2023-04-15T11:05:19;10.25;;;4.13;;
31526;SDS011;18136;42.236;-73.040;2023-04-15T11:07:48;8.00;;;4.25;;
31526;SDS011;18136;42.236;-73.040;2023-04-15T11:12:51;9.20;;;4.88;;
31526;SDS011;18136;42.236;-73.040;2023-04-15T11:17:50;9.73;;;4.70;;
31526;SDS011;18136;42.236;-73.040;2023-04-15T11:20:16;8.57;;;4.72;;
31526;SDS011;18136;42.236;-73.040;2023-04-15T11:22:46;7.32;;;3.70;;
31526;SDS011;18136;42.236;-73.040;2023-04-15T11:25:25;8.63;;;4.45;;
31526;SDS011;18136;42.236;-73.040;2023-04-15T11:27:57;7.40;;;4.05;;
31526;SDS011;18136;42.236;-73.040;2023-04-15T11:30:25;6.63;;;4.28;;
31526;SDS011;18136;42.236;-73.040;2023-04-15T11:32:56;9.15;;;3.90;;
31526;SDS011;18136;42.236;-73.040;2023-04-15T11:35:24;7.00;;;3.67;;
31526;SDS011;18136;42.236;-73.040;2023-04-15T11:37:51;7.72;;;4.07;;
31526;SDS011;18136;42.236;-73.040;2023-04-15T11:40:27;7.70;;;3.60;;
31526;SDS011;18136;42.236;-73.040;2023-04-15T11:45:36;10.23;;;3.85;;
31526;SDS011;18136;42.236;-73.040;2023-04-15T11:48:13;7.60;;;3.50;;
31526;SDS011;18136;42.236;-73.040;2023-04-15T11:50:39;11.38;;;3.67;;
31526;SDS011;18136;42.236;-73.040;2023-04-15T11:53:06;7.95;;;3.80;;
31526;SDS011;18136;42.236;-73.040;2023-04-15T11:55:41;7.75;;;3.38;;
31526;SDS011;18136;42.236;-73.040;2023-04-15T12:00:59;7.72;;;3.90;;
31526;SDS011;18136;42.236;-73.040;2023-04-15T12:04:07;5.18;;;3.47;;
31526;SDS011;18136;42.236;-73.040;2023-04-15T12:14:10;7.28;;;3.85;;
31526;SDS011;18136;42.236;-73.040;2023-04-15T12:16:46;6.47;;;3.67;;
31526;SDS011;18136;42.236;-73.040;2023-04-15T12:19:14;7.22;;;3.47;;
31526;SDS011;18136;42.236;-73.040;2023-04-15T12:21:47;5.10;;;3.40;;
31526;SDS011;18136;42.236;-73.040;2023-04-15T12:24:14;5.60;;;3.63;;
31526;SDS011;18136;42.236;-73.040;2023-04-15T12:29:10;8.98;;;3.88;;
31526;SDS011;18136;42.236;-73.040;2023-04-15T12:31:47;6.68;;;3.80;;
31526;SDS011;18136;42.236;-73.040;2023-04-15T12:34:15;5.22;;;3.25;;
31526;SDS011;18136;42.236;-73.040;2023-04-15T12:36:42;6.47;;;3.28;;
31526;SDS011;18136;42.236;-73.040;2023-04-15T12:39:08;4.22;;;3.10;;
31526;SDS011;18136;42.236;-73.040;2023-04-15T12:41:35;4.75;;;2.90;;
31526;SDS011;18136;42.236;-73.040;2023-04-15T12:44:01;6.68;;;3.00;;
31526;SDS011;18136;42.236;-73.040;2023-04-15T12:46:27;7.88;;;3.33;;
31526;SDS011;18136;42.236;-73.040;2023-04-15T12:48:53;5.93;;;3.05;;
31526;SDS011;18136;42.236;-73.040;2023-04-15T12:51:19;8.27;;;3.20;;
31526;SDS011;18136;42.236;-73.040;2023-04-15T12:53:45;6.47;;;3.22;;
31526;SDS011;18136;42.236;-73.040;2023-04-15T12:56:13;6.15;;;3.03;;
31526;SDS011;18136;42.236;-73.040;2023-04-15T12:58:41;19.55;;;4.25;;
31526;SDS011;18136;42.236;-73.040;2023-04-15T13:01:07;6.18;;;3.30;;
31526;SDS011;18136;42.236;-73.040;2023-04-15T13:03:34;6.35;;;3.22;;
31526;SDS011;18136;42.236;-73.040;2023-04-15T13:06:01;5.90;;;3.00;;
31526;SDS011;18136;42.236;-73.040;2023-04-15T13:08:31;9.23;;;3.10;;
31526;SDS011;18136;42.236;-73.040;2023-04-15T13:10:57;5.35;;;2.75;;
31526;SDS011;18136;42.236;-73.040;2023-04-15T13:13:23;4.15;;;2.40;;
31526;SDS011;18136;42.236;-73.040;2023-04-15T13:15:49;7.30;;;3.30;;
31526;SDS011;18136;42.236;-73.040;2023-04-15T13:18:15;5.85;;;2.42;;
31526;SDS011;18136;42.236;-73.040;2023-04-15T13:20:41;4.60;;;2.83;;
31526;SDS011;18136;42.236;-73.040;2023-04-15T13:23:08;7.63;;;3.30;;
31526;SDS011;18136;42.236;-73.040;2023-04-15T13:25:34;4.90;;;2.72;;
31526;SDS011;18136;42.236;-73.040;2023-04-15T13:28:00;7.63;;;3.05;;
31526;SDS011;18136;42.236;-73.040;2023-04-15T13:30:30;8.60;;;3.30;;
31526;SDS011;18136;42.236;-73.040;2023-04-15T13:32:56;5.22;;;2.85;;
31526;SDS011;18136;42.236;-73.040;2023-04-15T13:35:22;4.50;;;2.63;;
31526;SDS011;18136;42.236;-73.040;2023-04-15T13:37:48;6.72;;;3.13;;
31526;SDS011;18136;42.236;-73.040;2023-04-15T13:40:15;8.02;;;3.10;;
31526;SDS011;18136;42.236;-73.040;2023-04-15T13:42:41;8.68;;;2.90;;
31526;SDS011;18136;42.236;-73.040;2023-04-15T13:45:11;7.00;;;3.00;;
31526;SDS011;18136;42.236;-73.040;2023-04-15T13:47:37;7.53;;;2.83;;
31526;SDS011;18136;42.236;-73.040;2023-04-15T13:50:03;5.07;;;2.97;;
31526;SDS011;18136;42.236;-73.040;2023-04-15T13:52:30;5.03;;;2.60;;
31526;SDS011;18136;42.236;-73.040;2023-04-15T13:54:57;6.00;;;3.13;;
31526;SDS011;18136;42.236;-73.040;2023-04-15T13:57:23;8.85;;;2.88;;
31526;SDS011;18136;42.236;-73.040;2023-04-15T13:59:50;5.85;;;2.88;;
31526;SDS011;18136;42.236;-73.040;2023-04-15T14:02:16;7.35;;;2.80;;
31526;SDS011;18136;42.236;-73.040;2023-04-15T14:04:42;5.00;;;3.03;;
31526;SDS011;18136;42.236;-73.040;2023-04-15T14:07:12;6.40;;;3.10;;
31526;SDS011;18136;42.236;-73.040;2023-04-15T14:09:38;8.07;;;2.75;;
31526;SDS011;18136;42.236;-73.040;2023-04-15T14:12:04;6.80;;;3.08;;
31526;SDS011;18136;42.236;-73.040;2023-04-15T14:14:30;16.45;;;3.08;;
31526;SDS011;18136;42.236;-73.040;2023-04-15T14:16:56;5.18;;;2.95;;
31526;SDS011;18136;42.236;-73.040;2023-04-15T14:19:23;6.03;;;2.75;;
31526;SDS011;18136;42.236;-73.040;2023-04-15T14:21:49;7.45;;;3.30;;
31526;SDS011;18136;42.236;-73.040;2023-04-15T14:24:15;5.85;;;3.47;;
31526;SDS011;18136;42.236;-73.040;2023-04-15T14:26:41;14.52;;;4.20;;
31526;SDS011;18136;42.236;-73.040;2023-04-15T14:29:08;10.35;;;3.70;;
31526;SDS011;18136;42.236;-73.040;2023-04-15T14:31:36;5.00;;;3.22;;
31526;SDS011;18136;42.236;-73.040;2023-04-15T14:34:02;5.72;;;2.92;;
31526;SDS011;18136;42.236;-73.040;2023-04-15T14:36:28;4.88;;;2.80;;
31526;SDS011;18136;42.236;-73.040;2023-04-15T14:38:56;8.57;;;3.20;;
31526;SDS011;18136;42.236;-73.040;2023-04-15T14:41:22;5.75;;;3.25;;
31526;SDS011;18136;42.236;-73.040;2023-04-15T14:43:48;6.82;;;3.28;;
31526;SDS011;18136;42.236;-73.040;2023-04-15T14:46:14;7.68;;;2.80;;
31526;SDS011;18136;42.236;-73.040;2023-04-15T14:48:41;4.90;;;2.83;;
31526;SDS011;18136;42.236;-73.040;2023-04-15T14:51:07;7.82;;;2.80;;
31526;SDS011;18136;42.236;-73.040;2023-04-15T14:53:33;6.15;;;3.15;;